Time;durP1;ratioP1;P1;durP2;ratioP2;P2;SDS_P1;SDS_P2;PMS_P1;PMS_P2;Temp;Humidity;BMP_temperature;BMP_pressure;BME280_temperature;BME280_humidity;BME280_pressure;Samples;Min_cycle;Max_cycle;Signal;HPM_P1;HPM_P2
2022/11/28 10:22:46;;;;;;;29.37;19.30;;;;;;;5.02;100.00;98697.00;5108599;28;20567;-81
2022/11/28 10:25:18;;;;;;;28.70;19.03;;;;;;;5.36;100.00;98659.63;5091436;28;39113;-81
2022/11/28 10:27:51;;;;;;;26.00;18.47;;;;;;;6.12;100.00;98706.09;5090441;28;40833;-82
2022/11/28 10:31:01;;;;;;;24.47;17.60;;;;;;;6.48;99.01;98683.28;5091305;28;41610;-82
2022/11/28 10:33:56;;;;;;;27.57;19.13;;;;;;;6.86;94.81;98685.81;5070685;28;42051;-87
2022/11/28 10:43:12;;;;;;;23.90;16.83;;;;;;;7.86;86.40;98724.50;5149315;27;44381;-84
2022/11/28 10:46:02;;;;;;;24.50;17.57;;;;;;;8.04;84.97;98718.22;5169393;27;42309;-85
2022/11/28 10:48:43;;;;;;;21.33;16.00;;;;;;;8.05;83.82;98676.88;5152200;27;40933;-86
2022/11/28 10:51:24;;;;;;;21.57;15.63;;;;;;;8.29;82.99;98692.19;5151597;27;42257;-86
2022/11/28 10:54:04;;;;;;;24.97;18.03;;;;;;;8.38;80.75;98696.16;5167944;27;43992;-82
2022/11/28 10:56:40;;;;;;;22.70;16.40;;;;;;;8.51;79.80;98693.69;5147556;27;41076;-78
2022/11/28 10:59:43;;;;;;;23.77;17.03;;;;;;;8.79;79.27;98706.97;5148811;27;39198;-84
2022/11/28 11:02:57;;;;;;;21.20;15.50;;;;;;;8.93;78.31;98708.81;5144146;27;41581;-83
2022/11/28 11:08:46;;;;;;;20.90;15.63;;;;;;;8.81;77.05;98670.78;5131330;27;41932;-88
2022/11/28 11:11:37;;;;;;;19.00;14.77;;;;;;;8.91;76.18;98673.72;5141271;27;40558;-86
2022/11/28 11:14:06;;;;;;;21.33;15.27;;;;;;;9.24;76.00;98713.16;5152069;27;42169;-81
2022/11/28 11:16:58;;;;;;;18.43;14.70;;;;;;;9.22;75.41;98693.91;5145356;27;43201;-83
2022/11/28 11:19:31;;;;;;;19.93;15.97;;;;;;;9.35;74.69;98716.03;5151823;27;40923;-86
2022/11/28 11:22:58;;;;;;;20.40;15.63;;;;;;;9.24;74.28;98670.91;5151360;27;40219;-82
2022/11/28 11:28:46;;;;;;;19.47;15.63;;;;;;;9.00;72.70;98641.50;5150412;27;42936;-88
2022/11/28 11:31:42;;;;;;;22.03;16.17;;;;;;;9.37;73.08;98693.00;5112851;27;42663;-85
2022/11/28 11:34:38;;;;;;;20.30;14.67;;;;;;;9.07;72.11;98652.53;5099526;27;39457;-87
2022/11/28 11:37:29;;;;;;;19.87;14.90;;;;;;;9.14;71.95;98659.19;5099692;27;40934;-82
2022/11/28 11:39:57;;;;;;;19.20;14.70;;;;;;;9.24;72.00;98681.47;5099796;27;42168;-83
2022/11/28 11:42:34;;;;;;;19.20;15.20;;;;;;;9.34;72.20;98693.19;5098464;27;41914;-87
2022/11/28 11:45:26;;;;;;;17.67;14.27;;;;;;;9.06;72.52;98630.56;5126494;27;39240;-80
2022/11/28 11:47:54;;;;;;;19.13;15.27;;;;;;;9.29;72.68;98653.81;5136647;27;40967;-86
2022/11/28 11:51:03;;;;;;;20.97;15.33;;;;;;;9.33;72.09;98657.13;5137577;27;43253;-82
2022/11/28 11:56:15;;;;;;;17.87;14.77;;;;;;;9.49;72.06;98686.97;5120990;27;39192;-84
2022/11/28 11:59:07;;;;;;;20.77;15.43;;;;;;;9.07;71.16;98615.56;5137516;27;41108;-85
2022/11/28 12:02:17;;;;;;;18.10;14.27;;;;;;;9.39;71.37;98659.41;5137060;27;43505;-84
2022/11/28 12:04:58;;;;;;;18.03;14.17;;;;;;;9.21;71.62;98655.22;5137276;27;41950;-86
2022/11/28 12:07:34;;;;;;;19.00;14.97;;;;;;;9.25;70.52;98678.72;5120253;27;39092;-85
2022/11/28 12:10:29;;;;;;;16.87;13.77;;;;;;;9.03;71.51;98638.66;5119827;27;40596;-87
2022/11/28 12:13:13;;;;;;;20.40;14.33;;;;;;;9.17;70.98;98669.53;5100772;27;44547;-86
2022/11/28 12:15:51;;;;;;;17.90;13.87;;;;;;;9.13;71.62;98665.41;5099602;27;42021;-86
2022/11/28 12:18:33;;;;;;;17.67;14.17;;;;;;;9.12;71.67;98675.13;5100009;27;40399;-85
2022/11/28 12:21:19;;;;;;;19.33;15.17;;;;;;;9.08;71.24;98664.81;5093939;27;40925;-84
2022/11/28 12:24:14;;;;;;;19.10;13.70;;;;;;;9.19;71.49;98670.31;5094127;27;42059;-84
2022/11/28 12:26:47;;;;;;;17.13;14.20;;;;;;;8.97;71.64;98629.34;5096379;27;41230;-84
2022/11/28 12:29:48;;;;;;;17.90;13.83;;;;;;;9.00;72.03;98623.03;5099151;27;39084;-85
2022/11/28 12:33:09;;;;;;;19.30;14.73;;;;;;;9.08;71.50;98633.97;5102787;27;41939;-82
2022/11/28 12:35:40;;;;;;;16.60;13.33;;;;;;;9.24;71.85;98647.13;5056100;28;41476;-80
2022/11/28 12:38:22;;;;;;;17.00;12.80;;;;;;;9.09;72.06;98613.69;5061409;28;41569;-83
2022/11/28 12:41:34;;;;;;;17.67;14.03;;;;;;;9.32;72.32;98647.50;5071368;28;39029;-87
2022/11/28 12:44:26;;;;;;;16.70;12.93;;;;;;;9.28;71.66;98638.03;5057898;28;40569;-84
2022/11/28 12:47:02;;;;;;;17.73;13.40;;;;;;;9.31;71.09;98640.50;5050361;28;41599;-83
2022/11/28 12:49:39;;;;;;;16.80;13.27;;;;;;;9.13;71.43;98620.50;5058140;28;41730;-81
2022/11/28 12:52:19;;;;;;;16.53;13.33;;;;;;;9.09;71.38;98613.69;5052490;28;40500;-80
2022/11/28 12:58:27;;;;;;;16.57;12.37;;;;;;;9.25;72.08;98630.31;5097993;27;41592;-82
2022/11/28 13:01:34;;;;;;;16.47;12.77;;;;;;;9.21;71.67;98640.22;5107088;27;42241;-81
2022/11/28 13:04:14;;;;;;;17.23;13.67;;;;;;;9.15;71.88;98640.56;5095454;28;39083;-81
2022/11/28 13:06:52;;;;;;;15.63;12.57;;;;;;;8.91;72.01;98602.41;5103253;27;40879;-84
2022/11/28 13:09:30;;;;;;;15.17;12.37;;;;;;;9.04;72.59;98615.75;5115587;27;42068;-84
2022/11/28 13:12:23;;;;;;;16.17;12.80;;;;;;;9.12;71.94;98640.78;5114642;27;41149;-88
2022/11/28 13:15:02;;;;;;;15.07;12.03;;;;;;;9.15;72.06;98639.75;5116019;27;39951;-88
2022/11/28 13:18:06;;;;;;;14.93;12.23;;;;;;;8.99;72.30;98595.75;5115174;27;40767;-86
2022/11/28 13:20:34;;;;;;;15.63;11.83;;;;;;;9.26;72.48;98637.31;5114212;27;42895;-83
2022/11/28 13:23:11;;;;;;;15.47;12.33;;;;;;;9.16;72.41;98625.56;5133833;27;44369;-85
2022/11/28 13:25:50;;;;;;;18.30;13.47;;;;;;;9.02;72.81;98592.91;5152107;27;40213;-88
2022/11/28 13:28:42;;;;;;;17.60;13.13;;;;;;;9.19;73.01;98625.41;5156989;27;41722;-87
2022/11/28 13:31:29;;;;;;;16.73;13.27;;;;;;;9.11;73.18;98614.44;5151174;27;42093;-84
2022/11/28 13:34:21;;;;;;;18.37;13.77;;;;;;;9.16;72.75;98622.94;5134142;27;44331;-85
2022/11/28 13:37:02;;;;;;;14.93;12.80;;;;;;;9.00;72.74;98604.53;5135780;27;39688;-87
2022/11/28 13:39:35;;;;;;;17.63;13.60;;;;;;;9.11;73.10;98617.09;5135864;27;43515;-88
2022/11/28 13:42:18;;;;;;;16.53;13.00;;;;;;;9.05;73.14;98609.53;5135133;27;41888;-86
2022/11/28 13:44:53;;;;;;;16.93;13.10;;;;;;;9.14;72.60;98622.19;5135865;27;41382;-87
2022/11/28 13:47:30;;;;;;;21.50;15.30;;;;;;;9.12;72.60;98632.00;5169106;27;38743;-87
2022/11/28 13:50:38;;;;;;;24.43;15.33;;;;;;;9.06;72.73;98629.72;5174459;27;40640;-88
2022/11/28 13:53:24;;;;;;;19.00;14.40;;;;;;;9.02;72.79;98629.88;5174135;27;43377;-87
2022/11/28 13:55:55;;;;;;;18.43;14.07;;;;;;;9.04;73.33;98639.50;5155196;27;41927;-86
2022/11/28 13:58:25;;;;;;;19.07;14.83;;;;;;;9.05;73.19;98630.66;5174760;27;39655;-90
2022/11/28 14:01:03;;;;;;;16.03;13.50;;;;;;;9.06;73.19;98629.72;5173560;27;42103;-85
2022/11/28 14:03:33;;;;;;;20.57;13.40;;;;;;;8.97;73.51;98610.00;5157111;27;42231;-84
2022/11/28 14:06:06;;;;;;;16.97;12.97;;;;;;;9.08;73.01;98628.69;5152588;27;42488;-82
2022/11/28 14:08:38;;;;;;;16.67;13.07;;;;;;;8.96;72.86;98614.41;5150474;27;40175;-83
2022/11/28 14:11:20;;;;;;;18.97;14.20;;;;;;;8.88;72.25;98615.84;5139154;27;42245;-81
2022/11/28 14:14:05;;;;;;;17.33;13.97;;;;;;;8.78;72.81;98623.41;5155739;27;41645;-83
2022/11/28 14:16:44;;;;;;;15.80;12.63;;;;;;;8.79;72.94;98627.75;5147791;27;42611;-83
2022/11/28 14:19:22;;;;;;;18.47;13.90;;;;;;;8.55;73.61;98595.75;5135352;27;38705;-84
2022/11/28 14:22:02;;;;;;;19.83;13.50;;;;;;;8.77;73.49;98632.31;5134137;27;42247;-82
2022/11/28 14:24:51;;;;;;;20.40;14.50;;;;;;;8.77;73.51;98631.47;5152559;27;42703;-88
2022/11/28 14:27:23;;;;;;;17.63;13.57;;;;;;;8.55;73.63;98600.16;5167013;27;46178;-85
2022/11/28 14:29:54;;;;;;;18.47;13.60;;;;;;;8.69;73.88;98631.88;5156327;27;38941;-83
2022/11/28 14:32:30;;;;;;;18.80;14.30;;;;;;;8.58;74.19;98619.31;5154796;27;41929;-81
2022/11/28 14:35:01;;;;;;;17.23;13.93;;;;;;;8.59;74.36;98636.00;5135579;27;41798;-85
2022/11/28 14:37:58;;;;;;;17.20;14.00;;;;;;;8.55;74.37;98634.47;5168268;27;41175;-82
2022/11/28 14:41:05;;;;;;;20.40;15.63;;;;;;;8.47;74.76;98631.44;5156327;27;42814;-84
2022/11/28 14:43:35;;;;;;;21.27;16.80;;;;;;;8.40;74.60;98636.22;5135826;27;40687;-86
2022/11/28 14:46:27;;;;;;;18.90;14.90;;;;;;;8.37;75.07;98625.00;5156915;27;42742;-87
2022/11/28 14:49:20;;;;;;;19.43;15.20;;;;;;;8.42;75.16;98629.06;5156096;27;41065;-82
2022/11/28 14:52:24;;;;;;;18.73;14.17;;;;;;;8.41;75.05;98626.50;5129996;27;38698;-87
2022/11/28 14:54:54;;;;;;;18.20;13.10;;;;;;;8.40;75.18;98623.03;5149529;27;42679;-83
2022/11/28 14:57:29;;;;;;;15.70;12.53;;;;;;;8.43;75.34;98624.63;5134533;27;41758;-82
2022/11/28 15:00:00;;;;;;;15.83;12.73;;;;;;;8.48;75.65;98635.78;5135191;27;42324;-82
2022/11/28 15:03:03;;;;;;;14.80;11.10;;;;;;;8.47;75.52;98627.00;5134893;27;39989;-84
2022/11/28 15:05:45;;;;;;;18.73;13.23;;;;;;;8.51;75.44;98631.19;5122570;27;42035;-83
2022/11/28 15:08:24;;;;;;;14.43;11.17;;;;;;;8.50;75.58;98629.47;5136623;27;41591;-83
2022/11/28 15:11:08;;;;;;;14.07;11.53;;;;;;;8.40;75.51;98620.41;5144116;27;42731;-82
2022/11/28 15:13:54;;;;;;;13.37;11.63;;;;;;;8.47;75.55;98631.44;5188409;27;40171;-79
2022/11/28 15:16:23;;;;;;;15.93;12.03;;;;;;;8.12;75.85;98584.16;5178365;27;42095;-79
2022/11/28 15:18:55;;;;;;;15.83;12.07;;;;;;;8.32;76.11;98604.13;5166837;27;43109;-80
2022/11/28 15:21:23;;;;;;;14.37;11.73;;;;;;;8.27;76.47;98601.75;5165107;27;42802;-79
2022/11/28 15:23:51;;;;;;;16.53;12.47;;;;;;;8.26;76.08;98613.25;5162821;27;40406;-84
